Time,TemperatureF,DewpointF,PressureIn,WindDirection,WindDirectionDegrees,WindSpeedMPH,WindSpeedGustMPH,Humidity,HourlyPrecipIn,Conditions,Clouds,dailyrainin,SoftwareType,DateUTC
2013-03-13 00:09:00,11.1,2.6,26.37,NW,321,0.0,5.0,68,0.00,,,-99.99,Weather View 32 v70,2013-03-13 05:09:00,
2013-03-13 00:14:00,10.8,2.3,26.37,NW,321,0.0,5.0,68,0.00,,,-99.99,Weather View 32 v70,2013-03-13 05:14:00,
2013-03-13 00:24:00,10.0,1.6,26.37,NW,321,0.0,4.0,68,0.00,,,-99.99,Weather View 32 v70,2013-03-13 05:24:00,
2013-03-13 00:34:00,9.3,0.9,26.37,NW,320,0.0,4.0,68,0.00,,,-99.99,Weather View 32 v70,2013-03-13 05:34:00,
2013-03-13 00:39:00,9.1,0.7,26.37,NW,321,0.0,4.0,68,0.00,,,-99.99,Weather View 32 v70,2013-03-13 05:39:00,
2013-03-13 00:49:00,8.6,0.2,26.37,NW,321,0.0,4.0,68,0.00,,,-99.99,Weather View 32 v70,2013-03-13 05:49:00,
2013-03-13 00:54:00,8.6,0.2,26.37,NW,321,0.0,4.0,68,0.00,,,-99.99,Weather View 32 v70,2013-03-13 05:54:00,
2013-03-13 00:59:00,8.4,0.0,26.37,NW,321,0.0,0.0,68,0.00,,,-99.99,Weather View 32 v70,2013-03-13 05:59:00,
2013-03-13 01:09:00,8.4,0.0,26.37,NW,321,0.0,0.0,68,0.00,,,-99.99,Weather View 32 v70,2013-03-13 06:09:00,
2013-03-13 01:14:00,8.1,-0.3,26.37,NW,321,3.0,3.0,68,0.00,,,-99.99,Weather View 32 v70,2013-03-13 06:14:00,
2013-03-13 01:19:00,7.9,-0.5,26.37,NW,312,3.0,4.0,68,0.00,,,-99.99,Weather View 32 v70,2013-03-13 06:19:00,
2013-03-13 01:29:00,7.7,-0.6,26.37,West,269,3.0,4.0,68,0.00,,,-99.99,Weather View 32 v70,2013-03-13 06:29:00,
2013-03-13 01:39:00,7.2,-1.2,26.37,West,273,0.0,4.0,68,0.00,,,-99.99,Weather View 32 v70,2013-03-13 06:39:00,
2013-03-13 01:44:00,6.8,-1.5,26.37,NNW,338,0.0,4.0,68,0.00,,,-99.99,Weather View 32 v70,2013-03-13 06:44:00,
2013-03-13 01:54:00,6.3,-2.0,26.37,NNW,333,0.0,4.0,68,0.00,,,-99.99,Weather View 32 v70,2013-03-13 06:54:00,
2013-03-13 01:59:00,6.3,-2.0,26.37,WNW,301,3.0,4.0,68,0.00,,,-99.99,Weather View 32 v70,2013-03-13 06:59:00,
2013-03-13 02:04:00,6.3,-2.0,26.37,West,263,4.0,5.0,68,0.00,,,-99.99,Weather View 32 v70,2013-03-13 07:04:00,
2013-03-13 02:09:00,6.1,-2.2,26.37,West,264,3.0,5.0,68,0.00,,,-99.99,Weather View 32 v70,2013-03-13 07:09:00,
2013-03-13 02:14:00,6.1,-2.2,26.37,West,265,0.0,5.0,68,0.00,,,-99.99,Weather View 32 v70,2013-03-13 07:14:00,
2013-03-13 02:19:00,5.9,-2.4,26.37,WNW,297,3.0,5.0,68,0.00,,,-99.99,Weather View 32 v70,2013-03-13 07:19:00,
2013-03-13 02:29:00,6.1,-2.2,26.37,West,275,3.0,5.0,68,0.00,,,-99.99,Weather View 32 v70,2013-03-13 07:29:00,
2013-03-13 02:39:00,5.9,-2.4,26.37,West,280,3.0,5.0,68,0.00,,,-99.99,Weather View 32 v70,2013-03-13 07:39:00,
2013-03-13 02:44:00,5.7,-2.5,26.37,West,275,3.0,5.0,68,0.00,,,-99.99,Weather View 32 v70,2013-03-13 07:44:00,
2013-03-13 02:54:00,5.5,-2.7,26.37,West,280,3.0,5.0,68,0.00,,,-99.99,Weather View 32 v70,2013-03-13 07:54:00,
2013-03-13 02:59:00,5.5,-2.7,26.37,West,266,4.0,5.0,68,0.00,,,-99.99,Weather View 32 v70,2013-03-13 07:59:00,
2013-03-13 03:09:00,5.4,-2.9,26.37,West,267,3.0,5.0,68,0.00,,,-99.99,Weather View 32 v70,2013-03-13 08:09:00,
2013-03-13 03:19:00,5.4,-2.9,26.37,West,268,3.0,5.0,68,0.00,,,-99.99,Weather View 32 v70,2013-03-13 08:19:00,
2013-03-13 03:24:00,5.0,-3.2,26.37,West,267,4.0,5.0,68,0.00,,,-99.99,Weather View 32 v70,2013-03-13 08:24:00,
2013-03-13 03:29:00,5.0,-3.2,26.37,West,268,3.0,5.0,68,0.00,,,-99.99,Weather View 32 v70,2013-03-13 08:29:00,
2013-03-13 03:39:00,4.6,-3.6,26.37,West,267,0.0,5.0,68,0.00,,,-99.99,Weather View 32 v70,2013-03-13 08:39:00,
2013-03-13 03:44:00,4.5,-3.8,26.37,West,267,0.0,5.0,68,0.00,,,-99.99,Weather View 32 v70,2013-03-13 08:44:00,
2013-03-13 03:49:00,4.3,-3.9,26.37,West,268,0.0,5.0,68,0.00,,,-99.99,Weather View 32 v70,2013-03-13 08:49:00,
2013-03-13 03:59:00,3.4,-4.8,26.37,West,267,0.0,5.0,68,0.00,,,-99.99,Weather View 32 v70,2013-03-13 08:59:00,
2013-03-13 04:09:00,2.1,-6.0,26.37,West,267,0.0,4.0,68,0.00,,,-99.99,Weather View 32 v70,2013-03-13 09:09:00,
2013-03-13 04:19:00,2.5,-5.7,26.37,West,268,0.0,4.0,68,0.00,,,-99.99,Weather View 32 v70,2013-03-13 09:19:00,
2013-03-13 04:29:00,1.9,-6.2,26.37,West,267,0.0,4.0,68,0.00,,,-99.99,Weather View 32 v70,2013-03-13 09:29:00,
2013-03-13 04:39:00,1.2,-6.9,26.37,West,268,0.0,0.0,68,0.00,,,-99.99,Weather View 32 v70,2013-03-13 09:39:00,
2013-03-13 04:49:00,1.2,-6.9,26.37,West,268,0.0,0.0,68,0.00,,,-99.99,Weather View 32 v70,2013-03-13 09:49:00,
2013-03-13 05:00:00,0.5,-7.6,26.37,West,267,0.0,0.0,68,0.00,,,-99.99,Weather View 32 v70,2013-03-13 10:00:00,
2013-03-13 05:09:00,0.3,-7.7,26.37,West,267,0.0,0.0,68,0.00,,,-99.99,Weather View 32 v70,2013-03-13 10:09:00,
2013-03-13 05:19:00,0.1,-7.9,26.37,West,267,0.0,0.0,68,0.00,,,-99.99,Weather View 32 v70,2013-03-13 10:19:00,
2013-03-13 05:24:00,0.5,-7.6,26.37,West,267,0.0,0.0,68,0.00,,,-99.99,Weather View 32 v70,2013-03-13 10:24:00,
2013-03-13 05:29:00,0.9,-7.2,26.37,West,267,0.0,0.0,68,0.00,,,-99.99,Weather View 32 v70,2013-03-13 10:29:00,
2013-03-13 05:34:00,1.0,-7.0,26.37,West,268,0.0,0.0,68,0.00,,,-99.99,Weather View 32 v70,2013-03-13 10:34:00,
2013-03-13 05:39:00,0.9,-7.2,26.37,West,267,0.0,0.0,68,0.00,,,-99.99,Weather View 32 v70,2013-03-13 10:39:00,
2013-03-13 05:45:00,0.7,-7.4,26.37,West,266,0.0,0.0,68,0.00,,,-99.99,Weather View 32 v70,2013-03-13 10:45:00,
2013-03-13 05:54:00,0.3,-7.7,26.37,West,267,0.0,0.0,68,0.00,,,-99.99,Weather View 32 v70,2013-03-13 10:54:00,
2013-03-13 05:59:00,0.3,-7.7,26.37,West,267,0.0,0.0,68,0.00,,,-99.99,Weather View 32 v70,2013-03-13 10:59:00,
2013-03-13 06:09:00,0.1,-7.9,26.37,West,267,0.0,0.0,68,0.00,,,-99.99,Weather View 32 v70,2013-03-13 11:09:00,
2013-03-13 06:19:00,0.0,-8.1,26.37,West,267,0.0,0.0,68,0.00,,,-99.99,Weather View 32 v70,2013-03-13 11:19:00,
2013-03-13 06:24:00,0.0,-8.1,26.37,West,267,0.0,0.0,68,0.00,,,-99.99,Weather View 32 v70,2013-03-13 11:24:00,
2013-03-13 06:29:00,0.0,-8.1,26.37,West,267,0.0,0.0,68,0.00,,,-99.99,Weather View 32 v70,2013-03-13 11:29:00,
2013-03-13 06:34:00,-0.2,-8.2,26.37,West,267,0.0,0.0,68,0.00,,,-99.99,Weather View 32 v70,2013-03-13 11:34:00,
2013-03-13 06:44:00,-0.6,-8.6,26.37,West,268,0.0,0.0,68,0.00,,,-99.99,Weather View 32 v70,2013-03-13 11:44:00,
2013-03-13 06:54:00,-0.6,-8.6,26.37,West,268,0.0,0.0,68,0.00,,,-99.99,Weather View 32 v70,2013-03-13 11:54:00,
2013-03-13 06:59:00,-0.6,-8.6,26.37,West,268,0.0,0.0,68,0.00,,,-99.99,Weather View 32 v70,2013-03-13 11:59:00,
2013-03-13 07:09:00,-1.1,-9.1,26.37,West,267,0.0,0.0,68,0.00,,,-99.99,Weather View 32 v70,2013-03-13 12:09:00,
2013-03-13 07:19:00,-1.5,-9.5,26.37,West,267,0.0,0.0,68,0.00,,,-99.99,Weather View 32 v70,2013-03-13 12:19:00,
2013-03-13 07:29:00,-1.7,-9.6,26.37,West,267,0.0,0.0,68,0.00,,,-99.99,Weather View 32 v70,2013-03-13 12:29:00,
2013-03-13 07:34:00,-1.8,-9.8,26.37,West,268,0.0,0.0,68,0.00,,,-99.99,Weather View 32 v70,2013-03-13 12:34:00,
2013-03-13 07:39:00,-1.8,-9.8,26.37,West,267,0.0,0.0,68,0.00,,,-99.99,Weather View 32 v70,2013-03-13 12:39:00,
2013-03-13 07:46:00,-2.0,-10.0,26.37,West,267,0.0,0.0,68,0.00,,,-99.99,Weather View 32 v70,2013-03-13 12:46:00,
2013-03-13 07:54:00,-2.4,-10.3,26.37,West,267,0.0,0.0,68,0.00,,,-99.99,Weather View 32 v70,2013-03-13 12:54:00,
2013-03-13 07:59:00,-2.0,-10.0,26.37,West,268,0.0,0.0,68,0.00,,,-99.99,Weather View 32 v70,2013-03-13 12:59:00,
2013-03-13 08:09:00,-1.8,-9.8,26.37,West,267,0.0,0.0,68,0.00,,,-99.99,Weather View 32 v70,2013-03-13 13:09:00,
2013-03-13 08:14:00,-1.8,-9.8,26.37,West,266,0.0,0.0,68,0.00,,,-99.99,Weather View 32 v70,2013-03-13 13:14:00,
2013-03-13 08:19:00,-1.8,-9.8,26.37,West,267,0.0,0.0,68,0.00,,,-99.99,Weather View 32 v70,2013-03-13 13:19:00,
2013-03-13 08:29:00,-1.5,-9.5,26.37,West,267,0.0,0.0,68,0.00,,,-99.99,Weather View 32 v70,2013-03-13 13:29:00,
2013-03-13 08:34:00,-1.3,-9.3,26.37,West,267,0.0,0.0,68,0.00,,,-99.99,Weather View 32 v70,2013-03-13 13:34:00,
2013-03-13 08:44:00,-0.9,-8.9,26.37,West,268,0.0,0.0,68,0.00,,,-99.99,Weather View 32 v70,2013-03-13 13:44:00,
2013-03-13 08:55:00,-0.8,-8.8,26.37,West,268,0.0,0.0,68,0.00,,,-99.99,Weather View 32 v70,2013-03-13 13:55:00,
2013-03-13 09:00:00,-0.6,-8.6,26.37,West,266,0.0,0.0,68,0.00,,,-99.99,Weather View 32 v70,2013-03-13 14:00:00,
2013-03-13 09:10:00,0.1,-7.9,26.37,West,267,0.0,0.0,68,0.00,,,-99.99,Weather View 32 v70,2013-03-13 14:10:00,
2013-03-13 09:15:00,0.5,-7.6,26.37,West,266,0.0,0.0,68,0.00,,,-99.99,Weather View 32 v70,2013-03-13 14:15:00,
2013-03-13 09:24:00,1.4,-6.7,26.37,West,267,0.0,0.0,68,0.00,,,-99.99,Weather View 32 v70,2013-03-13 14:24:00,
2013-03-13 09:29:00,1.8,-6.3,26.37,West,267,0.0,0.0,68,0.00,,,-99.99,Weather View 32 v70,2013-03-13 14:29:00,
2013-03-13 09:34:00,2.1,-6.0,26.37,West,268,0.0,0.0,68,0.00,,,-99.99,Weather View 32 v70,2013-03-13 14:34:00,
2013-03-13 09:44:00,2.8,-5.3,26.37,West,266,0.0,0.0,68,0.00,,,-99.99,Weather View 32 v70,2013-03-13 14:44:00,
2013-03-13 09:54:00,3.4,-4.8,26.37,West,267,0.0,0.0,68,0.00,,,-99.99,Weather View 32 v70,2013-03-13 14:54:00,
2013-03-13 09:59:00,3.7,-4.4,26.37,West,267,0.0,0.0,68,0.00,,,-99.99,Weather View 32 v70,2013-03-13 14:59:00,
2013-03-13 10:09:00,5.4,-2.9,26.37,West,266,0.0,0.0,68,0.00,,,-99.99,Weather View 32 v70,2013-03-13 15:09:00,
2013-03-13 10:14:00,6.3,-2.0,26.37,WSW,244,0.0,0.0,68,0.00,,,-99.99,Weather View 32 v70,2013-03-13 15:14:00,
2013-03-13 10:19:00,7.2,-1.2,26.37,WSW,245,0.0,0.0,68,0.00,,,-99.99,Weather View 32 v70,2013-03-13 15:19:00,
2013-03-13 10:29:00,8.2,-0.1,26.37,WSW,245,0.0,3.0,68,0.00,,,-99.99,Weather View 32 v70,2013-03-13 15:29:00,
2013-03-13 10:39:00,9.1,0.7,26.37,WSW,245,4.0,4.0,68,0.00,,,-99.99,Weather View 32 v70,2013-03-13 15:39:00,
2013-03-13 10:44:00,8.6,0.2,26.37,WSW,244,0.0,4.0,68,0.00,,,-99.99,Weather View 32 v70,2013-03-13 15:44:00,
2013-03-13 10:54:00,9.3,0.9,26.37,South,172,3.0,4.0,68,0.00,,,-99.99,Weather View 32 v70,2013-03-13 15:54:00,
2013-03-13 10:59:00,9.9,1.4,26.37,South,187,0.0,4.0,68,0.00,,,-99.99,Weather View 32 v70,2013-03-13 15:59:00,
2013-03-13 11:09:00,10.0,1.6,26.37,South,172,4.0,5.0,68,0.00,,,-99.99,Weather View 32 v70,2013-03-13 16:09:00,
2013-03-13 11:14:00,10.2,1.8,26.37,South,191,4.0,5.0,68,0.00,,,-99.99,Weather View 32 v70,2013-03-13 16:14:00,
2013-03-13 11:24:00,11.1,2.6,26.37,SW,234,3.0,5.0,68,0.00,,,-99.99,Weather View 32 v70,2013-03-13 16:24:00,
2013-03-13 11:34:00,11.8,3.3,26.37,SSE,165,3.0,6.0,68,0.00,,,-99.99,Weather View 32 v70,2013-03-13 16:34:00,
2013-03-13 11:44:00,12.0,3.5,26.37,SSE,162,3.0,6.0,68,0.00,,,-99.99,Weather View 32 v70,2013-03-13 16:44:00,
2013-03-13 11:49:00,12.6,4.0,26.37,South,170,4.0,6.0,68,0.00,,,-99.99,Weather View 32 v70,2013-03-13 16:49:00,
2013-03-13 11:59:00,13.3,4.7,26.37,SSE,157,0.0,6.0,68,0.00,,,-99.99,Weather View 32 v70,2013-03-13 16:59:00,
2013-03-13 12:09:00,12.6,4.0,26.37,SSE,160,4.0,6.0,68,0.00,,,-99.99,Weather View 32 v70,2013-03-13 17:09:00,
2013-03-13 12:19:00,12.4,3.8,26.37,South,179,3.0,6.0,68,0.00,,,-99.99,Weather View 32 v70,2013-03-13 17:19:00,
2013-03-13 12:29:00,13.1,4.5,26.37,South,170,6.0,6.0,68,0.00,,,-99.99,Weather View 32 v70,2013-03-13 17:29:00,
2013-03-13 12:39:00,13.8,5.2,26.37,South,181,3.0,6.0,68,0.00,,,-99.99,Weather View 32 v70,2013-03-13 17:39:00,
2013-03-13 12:49:00,14.2,0.6,26.37,SSE,157,5.0,6.0,54,0.00,,,-99.99,Weather View 32 v70,2013-03-13 17:49:00,
2013-03-13 12:54:00,15.1,1.8,26.37,SSE,158,6.0,6.0,55,0.00,,,-99.99,Weather View 32 v70,2013-03-13 17:54:00,
2013-03-13 12:59:00,15.3,1.6,26.37,South,180,5.0,6.0,54,0.00,,,-99.99,Weather View 32 v70,2013-03-13 17:59:00,
2013-03-13 13:04:00,15.8,2.5,26.37,SSE,149,5.0,8.0,55,0.00,,,-99.99,Weather View 32 v70,2013-03-13 18:04:00,
2013-03-13 13:09:00,16.3,2.6,26.37,SE,138,3.0,8.0,54,0.00,,,-99.99,Weather View 32 v70,2013-03-13 18:09:00,
2013-03-13 13:19:00,17.2,3.4,26.37,South,176,7.0,8.0,54,0.00,,,-99.99,Weather View 32 v70,2013-03-13 18:19:00,
2013-03-13 13:24:00,17.4,3.6,26.37,SSE,168,3.0,8.0,54,0.00,,,-99.99,Weather View 32 v70,2013-03-13 18:24:00,
2013-03-13 13:29:00,17.4,3.6,26.37,SSE,164,3.0,8.0,54,0.00,,,-99.99,Weather View 32 v70,2013-03-13 18:29:00,
2013-03-13 13:34:00,17.6,3.4,26.37,South,178,8.0,8.0,53,0.00,,,-99.99,Weather View 32 v70,2013-03-13 18:34:00,
2013-03-13 13:44:00,18.1,3.9,26.37,South,172,6.0,8.0,53,0.00,,,-99.99,Weather View 32 v70,2013-03-13 18:44:00,
2013-03-13 13:50:00,18.5,4.2,26.37,ESE,120,3.0,8.0,53,0.00,,,-99.99,Weather View 32 v70,2013-03-13 18:50:00,
2013-03-13 13:59:00,18.5,4.2,26.37,SSE,158,6.0,8.0,53,0.00,,,-99.99,Weather View 32 v70,2013-03-13 18:59:00,
2013-03-13 14:09:00,18.5,4.2,26.37,SSE,161,3.0,9.0,53,0.00,,,-99.99,Weather View 32 v70,2013-03-13 19:09:00,
2013-03-13 14:14:00,18.3,4.0,26.37,South,171,6.0,9.0,53,0.00,,,-99.99,Weather View 32 v70,2013-03-13 19:14:00,
2013-03-13 14:19:00,19.2,5.3,26.37,SSW,194,6.0,9.0,54,0.00,,,-99.99,Weather View 32 v70,2013-03-13 19:19:00,
2013-03-13 14:24:00,19.6,5.2,26.37,SSE,149,3.0,9.0,53,0.00,,,-99.99,Weather View 32 v70,2013-03-13 19:24:00,
2013-03-13 14:29:00,19.9,5.6,26.37,South,181,4.0,9.0,53,0.00,,,-99.99,Weather View 32 v70,2013-03-13 19:29:00,
2013-03-13 14:39:00,20.1,5.7,26.37,South,179,6.0,9.0,53,0.00,,,-99.99,Weather View 32 v70,2013-03-13 19:39:00,
2013-03-13 14:49:00,20.1,5.7,26.37,South,175,6.0,9.0,53,0.00,,,-99.99,Weather View 32 v70,2013-03-13 19:49:00,
2013-03-13 14:54:00,20.3,6.3,26.37,SE,139,4.0,9.0,54,0.00,,,-99.99,Weather View 32 v70,2013-03-13 19:54:00,
2013-03-13 14:59:00,20.7,6.6,26.37,SSE,158,6.0,9.0,54,0.00,,,-99.99,Weather View 32 v70,2013-03-13 19:59:00,
2013-03-13 15:09:00,20.8,6.8,26.37,ESE,120,3.0,10.0,54,0.00,,,-99.99,Weather View 32 v70,2013-03-13 20:09:00,
2013-03-13 15:19:00,21.2,7.1,26.37,SSE,160,6.0,10.0,54,0.00,,,-99.99,Weather View 32 v70,2013-03-13 20:19:00,
2013-03-13 15:24:00,21.0,6.6,26.37,South,172,6.0,10.0,53,0.00,,,-99.99,Weather View 32 v70,2013-03-13 20:24:00,
2013-03-13 15:34:00,20.5,6.1,26.37,South,178,6.0,10.0,53,0.00,,,-99.99,Weather View 32 v70,2013-03-13 20:34:00,
2013-03-13 15:39:00,20.3,6.3,26.37,SSE,158,8.0,10.0,54,0.00,,,-99.99,Weather View 32 v70,2013-03-13 20:39:00,
2013-03-13 15:49:00,20.5,6.5,26.37,South,178,6.0,10.0,54,0.00,,,-99.99,Weather View 32 v70,2013-03-13 20:49:00,
2013-03-13 15:54:00,20.3,6.7,26.37,SE,143,4.0,10.0,55,0.00,,,-99.99,Weather View 32 v70,2013-03-13 20:54:00,
2013-03-13 16:04:00,19.4,5.9,26.37,SE,140,8.0,9.0,55,0.00,,,-99.99,Weather View 32 v70,2013-03-13 21:04:00,
2013-03-13 16:14:00,19.2,6.1,26.37,SSE,157,3.0,9.0,56,0.00,,,-99.99,Weather View 32 v70,2013-03-13 21:14:00,
2013-03-13 16:19:00,19.2,6.5,26.37,SW,218,5.0,9.0,57,0.00,,,-99.99,Weather View 32 v70,2013-03-13 21:19:00,
2013-03-13 16:29:00,19.2,6.9,26.37,SW,233,6.0,9.0,58,0.00,,,-99.99,Weather View 32 v70,2013-03-13 21:29:00,
2013-03-13 16:39:00,19.8,7.0,26.37,South,184,5.0,9.0,57,0.00,,,-99.99,Weather View 32 v70,2013-03-13 21:39:00,
2013-03-13 16:44:00,19.9,7.2,26.37,SSE,163,5.0,9.0,57,0.00,,,-99.99,Weather View 32 v70,2013-03-13 21:44:00,
2013-03-13 16:51:00,19.8,7.0,26.37,SSE,152,4.0,10.0,57,0.00,,,-99.99,Weather View 32 v70,2013-03-13 21:51:00,
2013-03-13 16:59:00,19.8,7.4,26.37,SSE,162,6.0,10.0,58,0.00,,,-99.99,Weather View 32 v70,2013-03-13 21:59:00,
2013-03-13 17:04:00,19.4,7.0,26.37,SSE,155,5.0,10.0,58,0.00,,,-99.99,Weather View 32 v70,2013-03-13 22:04:00,
2013-03-13 17:09:00,19.4,7.0,26.37,South,179,6.0,10.0,58,0.00,,,-99.99,Weather View 32 v70,2013-03-13 22:09:00,
2013-03-13 17:14:00,19.4,7.4,26.37,East,98,4.0,10.0,59,0.00,,,-99.99,Weather View 32 v70,2013-03-13 22:14:00,
2013-03-13 17:24:00,19.6,7.9,26.37,South,173,5.0,10.0,60,0.00,,,-99.99,Weather View 32 v70,2013-03-13 22:24:00,
2013-03-13 17:34:00,19.9,8.3,26.37,SE,130,3.0,10.0,60,0.00,,,-99.99,Weather View 32 v70,2013-03-13 22:34:00,
2013-03-13 17:39:00,20.1,8.5,26.37,SSW,192,5.0,10.0,60,0.00,,,-99.99,Weather View 32 v70,2013-03-13 22:39:00,
2013-03-13 17:48:00,19.9,7.9,26.37,SSE,153,4.0,9.0,59,0.00,,,-99.99,Weather View 32 v70,2013-03-13 22:48:00,
2013-03-13 17:55:00,19.4,7.8,26.37,SE,137,8.0,10.0,60,0.00,,,-99.99,Weather View 32 v70,2013-03-13 22:55:00,
2013-03-13 18:00:00,19.2,8.0,26.37,SE,133,6.0,10.0,61,0.00,,,-99.99,Weather View 32 v70,2013-03-13 23:00:00,
2013-03-13 18:05:00,18.9,7.6,26.37,ESE,122,4.0,10.0,61,0.00,,,-99.99,Weather View 32 v70,2013-03-13 23:05:00,
2013-03-13 18:14:00,18.7,8.2,26.37,South,181,5.0,11.0,63,0.00,,,-99.99,Weather View 32 v70,2013-03-13 23:14:00,
2013-03-13 18:19:00,18.7,8.2,26.37,South,189,7.0,11.0,63,0.00,,,-99.99,Weather View 32 v70,2013-03-13 23:19:00,
2013-03-13 18:25:00,18.7,8.5,26.37,SE,139,5.0,11.0,64,0.00,,,-99.99,Weather View 32 v70,2013-03-13 23:25:00,
2013-03-13 18:34:00,18.7,8.9,26.37,SSE,164,3.0,12.0,65,0.00,,,-99.99,Weather View 32 v70,2013-03-13 23:34:00,
2013-03-13 18:39:00,18.7,8.9,26.37,ESE,108,5.0,12.0,65,0.00,,,-99.99,Weather View 32 v70,2013-03-13 23:39:00,
2013-03-13 18:49:00,18.7,9.2,26.37,South,170,5.0,12.0,66,0.00,,,-99.99,Weather View 32 v70,2013-03-13 23:49:00,
2013-03-13 18:59:00,18.9,10.0,26.37,South,174,6.0,12.0,68,0.00,,,-99.99,Weather View 32 v70,2013-03-13 23:59:00,
2013-03-13 19:09:00,19.0,10.5,26.37,SSE,148,7.0,12.0,69,0.00,,,-99.99,Weather View 32 v70,2013-03-14 00:09:00,
2013-03-13 19:19:00,19.2,10.7,26.37,South,177,7.0,12.0,69,0.00,,,-99.99,Weather View 32 v70,2013-03-14 00:19:00,
2013-03-13 19:29:00,19.4,11.2,26.37,SW,227,2.0,11.0,70,0.00,,,-99.99,Weather View 32 v70,2013-03-14 00:29:00,
2013-03-13 19:34:00,19.4,11.2,26.37,SSE,165,4.0,11.0,70,0.00,,,-99.99,Weather View 32 v70,2013-03-14 00:34:00,
2013-03-13 19:44:00,19.8,11.6,26.37,SSW,205,6.0,11.0,70,0.00,,,-99.99,Weather View 32 v70,2013-03-14 00:44:00,
2013-03-13 19:49:00,19.8,11.9,26.37,South,189,5.0,11.0,71,0.00,,,-99.99,Weather View 32 v70,2013-03-14 00:49:00,
2013-03-13 19:59:00,19.9,12.1,26.37,SE,142,6.0,11.0,71,0.00,,,-99.99,Weather View 32 v70,2013-03-14 00:59:00,
2013-03-13 20:09:00,20.1,12.2,26.37,South,176,8.0,11.0,71,0.00,,,-99.99,Weather View 32 v70,2013-03-14 01:09:00,
2013-03-13 20:19:00,20.3,12.4,26.37,SSE,153,9.0,12.0,71,0.00,,,-99.99,Weather View 32 v70,2013-03-14 01:19:00,
2013-03-13 20:24:00,20.3,12.4,26.37,East,98,4.0,12.0,71,0.00,,,-99.99,Weather View 32 v70,2013-03-14 01:24:00,
2013-03-13 20:34:00,20.5,12.6,26.37,SSE,164,8.0,12.0,71,0.00,,,-99.99,Weather View 32 v70,2013-03-14 01:34:00,
2013-03-13 20:39:00,20.7,12.8,26.37,South,176,8.0,13.0,71,0.00,,,-99.99,Weather View 32 v70,2013-03-14 01:39:00,
2013-03-13 20:49:00,20.8,13.2,26.37,SE,134,10.0,13.0,72,0.00,,,-99.99,Weather View 32 v70,2013-03-14 01:49:00,
2013-03-13 20:54:00,20.8,13.2,26.37,SE,136,4.0,13.0,72,0.00,,,-99.99,Weather View 32 v70,2013-03-14 01:54:00,
2013-03-13 20:59:00,20.8,13.2,26.37,SSE,150,5.0,13.0,72,0.00,,,-99.99,Weather View 32 v70,2013-03-14 01:59:00,
2013-03-13 21:09:00,21.0,13.4,26.37,South,179,8.0,13.0,72,0.00,,,-99.99,Weather View 32 v70,2013-03-14 02:09:00,
2013-03-13 21:14:00,21.2,13.6,26.37,SE,136,8.0,13.0,72,0.00,,,-99.99,Weather View 32 v70,2013-03-14 02:14:00,
2013-03-13 21:24:00,21.2,13.6,26.37,SE,128,3.0,13.0,72,0.00,,,-99.99,Weather View 32 v70,2013-03-14 02:24:00,
2013-03-13 21:29:00,21.4,13.4,26.37,SW,222,6.0,13.0,71,0.00,,,-99.99,Weather View 32 v70,2013-03-14 02:29:00,
2013-03-13 21:39:00,21.6,13.6,26.37,South,171,8.0,13.0,71,0.00,,,-99.99,Weather View 32 v70,2013-03-14 02:39:00,
2013-03-13 21:44:00,21.6,13.6,26.37,SSE,157,8.0,13.0,71,0.00,,,-99.99,Weather View 32 v70,2013-03-14 02:44:00,
2013-03-13 21:54:00,21.6,13.6,26.37,SSE,167,8.0,11.0,71,0.00,,,-99.99,Weather View 32 v70,2013-03-14 02:54:00,
2013-03-13 22:04:00,21.7,13.8,26.37,South,175,8.0,12.0,71,0.00,,,-99.99,Weather View 32 v70,2013-03-14 03:04:00,
2013-03-13 22:14:00,21.9,14.0,26.37,South,178,4.0,12.0,71,0.00,,,-99.99,Weather View 32 v70,2013-03-14 03:14:00,
2013-03-13 22:19:00,22.1,14.1,26.37,SSE,159,8.0,12.0,71,0.00,,,-99.99,Weather View 32 v70,2013-03-14 03:19:00,
2013-03-13 22:29:00,22.3,14.3,26.37,SSE,168,9.0,12.0,71,0.00,,,-99.99,Weather View 32 v70,2013-03-14 03:29:00,
2013-03-13 22:34:00,22.3,14.3,26.37,South,182,6.0,12.0,71,0.00,,,-99.99,Weather View 32 v70,2013-03-14 03:34:00,
2013-03-13 22:39:00,22.5,14.5,26.37,SE,145,3.0,12.0,71,0.00,,,-99.99,Weather View 32 v70,2013-03-14 03:39:00,
2013-03-13 22:44:00,22.5,14.5,26.37,South,169,4.0,12.0,71,0.00,,,-99.99,Weather View 32 v70,2013-03-14 03:44:00,
2013-03-13 22:54:00,22.8,14.8,26.37,ESE,120,8.0,12.0,71,0.00,,,-99.99,Weather View 32 v70,2013-03-14 03:54:00,
2013-03-13 23:04:00,22.8,15.1,26.37,SSE,168,8.0,11.0,72,0.00,,,-99.99,Weather View 32 v70,2013-03-14 04:04:00,
2013-03-13 23:09:00,23.0,15.6,26.37,South,175,5.0,11.0,73,0.00,,,-99.99,Weather View 32 v70,2013-03-14 04:09:00,
2013-03-13 23:19:00,23.2,16.1,26.37,SSE,166,13.0,15.0,74,0.00,,,-99.99,Weather View 32 v70,2013-03-14 04:19:00,
2013-03-13 23:24:00,23.2,16.1,26.37,SSE,158,6.0,15.0,74,0.00,,,-99.99,Weather View 32 v70,2013-03-14 04:24:00,
2013-03-13 23:34:00,23.5,16.8,26.37,SE,142,6.0,15.0,75,0.00,,,-99.99,Weather View 32 v70,2013-03-14 04:34:00,
2013-03-13 23:39:00,23.7,17.0,26.37,SSE,154,5.0,15.0,75,0.00,,,-99.99,Weather View 32 v70,2013-03-14 04:39:00,
2013-03-13 23:44:00,23.9,17.1,26.37,SE,146,7.0,15.0,75,0.00,,,-99.99,Weather View 32 v70,2013-03-14 04:44:00,
2013-03-13 23:54:00,24.4,17.7,26.37,SE,143,5.0,15.0,75,0.00,,,-99.99,Weather View 32 v70,2013-03-14 04:54:00,
2013-03-13 23:59:00,24.4,17.7,26.37,ESE,120,6.0,15.0,75,0.00,,,-99.99,Weather View 32 v70,2013-03-14 04:59:00,